CheckWX is a tool to help pilots better visualize weather data.  It is not intended as a substitute for an official pre-flight weather briefing.

11:30:53 UTC

KRDU TAF
Raleigh-Durham International Airport
Morrisville, North Carolina, USA
KRDU 240539Z 2406/2506 VRB04KT P6SM FEW070 SCT250 TEMPO 2409/2412 5SM BR FM241700 22010KT P6SM SCT050 SCT250 PROB30 2503/2506 VRB15G25KT 3SM -TSRA BKN025 OVC035CB

Jun-24@
06:00 UTC

Jun-24 @ 06:00 UTC

Jun-24@
17:00 UTC

Jun-24 @ 17:00 UTC

KRDU 240539Z 2406/2506 VRB04KT P6SM FEW070 SCT250
Wind
  • Variable at 4 KTS
Cloud Levels
  • Few at 7,000' AGL
  • Scattered at 25,000' AGL

Jun-24@
09:00 UTC

Jun-24 @ 09:00 UTC

Jun-24@
12:00 UTC

Jun-24 @ 12:00 UTC

TEMPO 2409/2412 5SM BR

Temporary

Temporary Changes expected for less than half the time period

Conditions
Mist

Jun-24@
17:00 UTC

Jun-24 @ 17:00 UTC

Jun-25@
06:00 UTC

Jun-25 @ 06:00 UTC

FM241700 22010KT P6SM SCT050 SCT250

From

From Standard forecast or significant change

Wind
  • 220° at 10 KTS
Cloud Levels
  • Scattered at 5,000' AGL
  • Scattered at 25,000' AGL

Jun-25@
03:00 UTC

Jun-25 @ 03:00 UTC

Jun-25@
06:00 UTC

Jun-25 @ 06:00 UTC

PROB30 2503/2506 VRB15G25KT 3SM -TSRA BKN025 OVC035CB

Probable - 30% Likelihood

Probable - 30% Likelihood during this time.

Wind
  • Variable at 15 KTS
  • {Gusting to 25 KTS
Conditions
Light Thunderstorm, Light Rain
Cloud Levels
  • Broken at 2,500' AGL
  • Overcast at 3,500' AGL